Latest Weather Observations for Avalon

IDV60901

Issued at 1:45 am EST Saturday 2 August 2014 (issued every 10 minutes, with the page automatically refreshed every 10 minutes)

About weather observations | Map of Melbourne area stations | Latest observations for Melbourne area | Other Formats
Station Details ID: 087113 Name: AVALON AIRPORT Lat: -38.03 Lon: 144.48 Height: 10.6 m
Data from the previous 72 hours. | See also: Recent months at Avalon
Date/Time
EST
Tmp

°C
App
Tmp
°C
Dew
Point
°C
Rel
Hum
%
Delta-T

°C
Wind Press
QNH
hPa
Press
MSL
hPa
Rain
since
9 am
mm
Dir
 
Spd
km/h
Gust
km/h
Spd
kts
Gust
kts
02/01:30am 4.8 -0.9 2.7 86 0.8 W 22 30 12 16 1023.9 - 3.6
02/01:00am 4.2 -1.2 2.2 87 0.8 W 20 24 11 13 1023.8 - 3.6
02/12:30am 4.4 -2.2 2.3 86 0.8 W 26 33 14 18 1023.2 - 3.4
02/12:00am 4.6 -2.3 2.3 85 0.9 W 28 33 15 18 1022.8 1022.8 3.4
 
Date/Time
EST
Tmp

°C
App
Tmp
°C
Dew
Point
°C
Rel
Hum
%
Delta-T

°C
Wind Press
QNH
hPa
Press
MSL
hPa
Rain
since
9 am
mm
Dir
 
Spd
km/h
Gust
km/h
Spd
kts
Gust
kts
01/11:30pm 4.9 -2.4 2.6 85 0.9 W 30 35 16 19 1022.4 - 3.4
01/11:00pm 5.1 -2.1 2.8 85 0.9 W 30 39 16 21 1021.8 - 3.4
01/10:30pm 5.0 -1.4 3.0 87 0.8 W 26 33 14 18 1021.4 - 3.4
01/10:00pm 5.4 -1.4 3.1 85 0.9 WNW 28 35 15 19 1020.7 - 3.4
01/09:30pm 4.9 -0.2 2.9 87 0.8 WNW 19 26 10 14 1020.2 - 3.4
01/09:00pm 5.1 1.9 3.1 87 0.8 NW 9 17 5 9 1019.8 1019.8 3.4
01/08:30pm 5.8 2.1 4.4 91 0.6 WNW 13 17 7 9 1019.5 - 3.2
01/08:00pm 5.9 0.5 4.5 91 0.6 WNW 22 26 12 14 1018.7 - 2.6
01/07:30pm 6.1 -0.1 4.3 88 0.8 WNW 26 33 14 18 1017.8 - 2.4
01/07:00pm 5.9 -0.8 3.9 87 0.8 W 28 35 15 19 1017.2 - 2.4
01/06:30pm 6.0 0.2 4.2 88 0.8 W 24 28 13 15 1016.4 - 2.2
01/06:00pm 6.5 -0.2 3.8 83 1.1 WSW 28 37 15 20 1015.6 1015.6 2.2
01/05:30pm 6.4 -2.4 3.7 83 1.1 WSW 39 54 21 29 1014.8 - 1.6
01/05:21pm 6.7 -1.7 3.7 81 1.3 WSW 37 54 20 29 1014.5 - 1.4
01/05:00pm 7.0 0.7 4.0 81 1.3 WSW 26 35 14 19 1013.2 - 1.4
01/04:30pm 8.2 1.2 3.9 74 1.9 W 30 41 16 22 1012.2 - 0.8
01/04:00pm 8.8 0.9 4.2 73 2.0 W 35 46 19 25 1011.2 - 0.8
01/03:30pm 9.0 2.5 4.6 74 1.9 W 28 39 15 21 1010.4 - 0.8
01/03:00pm 8.8 2.7 4.6 75 1.9 W 26 39 14 21 1009.5 1009.5 0.8
01/02:35pm 8.3 0.3 3.8 73 1.9 W 35 54 19 29 1009.2 - 0.6
01/02:30pm 9.2 0.6 4.4 72 2.1 W 39 52 21 28 1008.8 - 0.6
01/02:00pm 9.2 1.0 5.0 75 1.9 WNW 37 48 20 26 1007.9 - 0.6
01/01:30pm 8.9 -0.5 4.5 74 1.9 WNW 43 54 23 29 1007.5 - 0.6
01/01:00pm 9.1 0.4 4.3 72 2.1 WNW 39 50 21 27 1007.1 - 0.6
01/12:30pm 9.3 1.7 5.7 78 1.6 W 35 43 19 23 1006.7 - 0.6
01/12:00pm 7.0 -2.1 4.1 82 1.3 WNW 41 52 22 28 1005.9 1005.9 0.6
01/11:30am 5.6 -3.9 3.8 88 0.8 NW 43 54 23 29 1005.4 - 0.6
01/11:14am 5.2 -6.1 3.4 88 0.7 WNW 52 67 28 36 1005.4 - 0.6
01/11:02am 5.5 -8.3 3.0 84 1.0 WNW 65 87 35 47 1005.3 - 0.2
01/11:00am 6.0 -7.8 3.3 83 1.1 WNW 65 87 35 47 1005.0 - 0.2
01/10:53am 7.5 -5.2 3.0 73 1.9 WNW 59 87 32 47 1004.6 - 0.0
01/10:33am 8.5 -1.5 2.1 64 2.7 WNW 44 65 24 35 1003.9 - 0.0
01/10:30am 8.7 -1.2 2.5 65 2.6 WNW 44 57 24 31 1004.0 - 0.0
01/10:02am 9.5 -0.2 2.8 63 2.9 NW 43 61 23 33 1002.8 - 0.0
01/10:00am 9.2 -0.2 2.5 63 2.8 NW 41 57 22 31 1002.9 - 0.0
01/09:30am 8.4 -1.6 2.4 66 2.5 NW 44 69 24 37 1002.5 - 0.0
01/09:09am 7.4 -3.0 2.1 69 2.2 NW 46 65 25 35 1001.6 - 0.0
01/09:00am 6.9 -3.5 1.8 70 2.1 NW 46 61 25 33 1001.7 1001.7 7.8
01/08:30am 6.8 -2.3 2.1 72 1.9 NW 39 57 21 31 1002.1 - 7.8
01/08:25am 6.7 -2.0 1.8 71 2.0 NW 37 57 20 31 1002.2 - 7.8
01/08:00am 6.2 -2.1 1.9 74 1.7 NW 35 44 19 24 1002.1 - 7.8
01/07:34am 6.7 -1.3 1.6 70 2.1 NW 33 59 18 32 1002.3 - 7.8
01/07:30am 6.3 -1.7 1.6 72 1.9 NW 33 50 18 27 1002.3 - 7.8
01/07:00am 6.2 -1.7 1.3 71 2.0 NW 32 44 17 24 1001.2 - 7.8
01/06:30am 6.3 -2.5 1.4 71 2.0 NW 37 50 20 27 1000.4 - 7.8
01/06:00am 6.3 -2.9 1.4 71 2.0 NW 39 52 21 28 999.4 999.4 7.8
01/05:30am 6.5 -2.3 1.6 71 2.0 NW 37 52 20 28 1000.2 - 7.8
01/05:00am 6.3 -2.8 1.6 72 1.9 NW 39 56 21 30 1000.5 - 7.8
01/04:54am 6.3 -2.5 1.6 72 1.9 NW 37 56 20 30 1000.4 - 7.8
01/04:30am 6.3 -3.8 1.8 73 1.8 NW 44 59 24 32 1000.3 - 7.8
01/04:00am 6.2 -2.9 2.1 75 1.7 NW 39 54 21 29 1000.1 - 7.8
01/03:42am 6.6 -5.0 1.9 72 1.9 NW 52 72 28 39 1000.0 - 7.8
01/03:30am 6.8 -4.4 1.9 71 2.0 NW 50 67 27 36 1000.0 - 7.8
01/03:01am 6.9 -3.9 2.0 71 2.0 NW 48 69 26 37 1000.3 - 7.8
01/03:00am 6.9 -3.5 2.0 71 2.0 NW 46 59 25 32 1000.2 1000.2 7.8
01/02:30am 7.1 -4.9 1.8 69 2.2 NW 54 70 29 38 999.7 - 7.8
01/02:10am 7.1 -3.7 2.0 70 2.1 NW 48 67 26 36 999.6 - 7.8
01/02:00am 7.0 -4.2 1.9 70 2.1 NW 50 63 27 34 999.5 - 7.8
01/01:39am 6.7 -4.1 2.0 72 1.9 NW 48 67 26 36 999.9 - 7.8
01/01:30am 6.3 -3.7 2.0 74 1.7 NW 44 57 24 31 1000.2 - 7.8
01/01:19am 6.4 -3.0 2.1 74 1.7 NW 41 61 22 33 1000.3 - 7.8
01/01:00am 6.3 -2.8 2.0 74 1.7 NW 39 50 21 27 1000.5 - 7.8
01/12:30am 6.4 -1.3 2.1 74 1.7 NW 32 41 17 22 1001.1 - 7.8
01/12:00am 6.5 -0.9 2.0 73 1.8 NW 30 37 16 20 1001.5 1001.5 7.8
 
Date/Time
EST
Tmp

°C
App
Tmp
°C
Dew
Point
°C
Rel
Hum
%
Delta-T

°C
Wind Press
QNH
hPa
Press
MSL
hPa
Rain
since
9 am
mm
Dir
 
Spd
km/h
Gust
km/h
Spd
kts
Gust
kts
31/11:30pm 7.0 -0.9 2.1 71 2.0 WNW 33 41 18 22 1001.4 - 7.8
31/11:00pm 7.5 -0.4 2.0 68 2.3 NW 33 41 18 22 1001.4 - 7.8
31/10:30pm 7.7 -0.2 2.4 69 2.2 NW 33 43 18 23 1001.4 - 7.8
31/10:00pm 7.8 -0.4 2.7 70 2.1 NW 35 44 19 24 1001.2 - 7.8
31/09:30pm 8.2 0.3 2.2 66 2.5 NW 33 43 18 23 1000.8 - 7.8
31/09:00pm 8.3 -0.7 2.5 67 2.4 WNW 39 54 21 29 1000.5 1000.5 7.8
31/08:30pm 8.2 -0.7 3.1 70 2.2 WNW 39 50 21 27 1000.5 - 7.8
31/08:00pm 8.2 0.7 3.7 73 1.9 WNW 32 43 17 23 1000.1 - 7.8
31/07:30pm 8.3 0.4 4.1 75 1.8 NW 35 54 19 29 1000.3 - 7.8
31/07:00pm 8.1 1.2 4.5 78 1.6 NW 30 41 16 22 999.8 - 7.8
31/06:30pm 8.0 0.7 4.6 79 1.5 NW 32 41 17 22 999.1 - 7.8
31/06:00pm 7.6 1.2 5.1 84 1.1 NW 28 39 15 21 999.1 999.1 7.8
31/05:30pm 7.3 0.5 5.3 87 0.9 NW 30 41 16 22 998.8 - 7.6
31/05:00pm 7.2 0.0 5.8 91 0.6 WNW 33 43 18 23 999.2 - 7.4
31/04:53pm 7.1 -0.9 5.6 90 0.7 WNW 37 46 20 25 999.0 - 7.4
31/04:41pm 7.1 -1.7 5.6 90 0.7 WNW 41 59 22 32 999.0 - 7.2
31/04:39pm 7.0 -2.2 5.5 90 0.7 W 43 59 23 32 999.2 - 7.0
31/04:31pm 7.2 -1.2 5.5 89 0.8 W 39 59 21 32 999.1 - 6.8
31/04:30pm 7.2 -1.2 5.7 90 0.7 W 39 52 21 28 999.1 - 6.6
31/04:03pm 7.6 0.1 6.1 90 0.7 W 35 59 19 32 998.6 - 6.0
31/04:00pm 7.7 0.2 6.3 91 0.6 W 35 50 19 27 998.7 - 5.8
31/03:31pm 8.1 1.2 6.6 90 0.7 W 32 50 17 27 997.9 - 5.0
31/03:30pm 8.2 1.1 6.5 89 0.8 W 33 50 18 27 997.8 - 5.0
31/03:05pm 8.5 0.7 6.8 89 0.8 W 37 57 20 31 997.4 - 4.6
31/03:04pm 8.5 0.7 6.8 89 0.8 W 37 57 20 31 997.3 - 4.4
31/03:00pm 8.6 0.5 6.9 89 0.8 W 39 54 21 29 997.3 997.3 4.4
31/02:59pm 8.6 0.1 6.9 89 0.8 W 41 67 22 36 997.3 - 4.4
31/02:50pm 8.8 -0.3 6.8 87 0.9 W 44 67 24 36 997.1 - 4.2
31/02:49pm 8.8 -0.1 6.9 88 0.9 W 43 63 23 34 997.0 - 4.2
31/02:30pm 10.0 2.4 9.1 94 0.4 W 39 61 21 33 996.2 - 3.4
31/02:13pm 10.2 1.0 8.1 87 1.0 W 46 65 25 35 995.6 - 1.0
31/02:12pm 10.3 0.7 8.1 86 1.1 W 48 65 26 35 995.3 - 0.8
31/02:01pm 13.6 1.6 4.7 55 4.1 W 57 80 31 43 994.6 - 0.0
31/02:00pm 16.7 5.0 6.2 50 5.1 NW 57 80 31 43 994.0 - 0.0
31/01:30pm 18.1 6.6 7.2 49 5.5 NNW 57 78 31 42 992.1 - 0.0
31/01:00pm 17.9 4.8 6.7 48 5.6 NNW 65 89 35 48 992.6 - 0.0
31/12:30pm 17.7 5.7 6.6 48 5.5 NNW 59 83 32 45 993.3 - 0.0
31/12:00pm 17.4 4.2 6.3 48 5.5 NNW 65 87 35 47 994.0 994.0 0.0
31/11:30am 17.1 4.0 6.6 50 5.2 NNW 65 91 35 49 994.8 - 0.0
31/11:00am 16.7 4.4 6.8 52 4.9 NNW 61 91 33 49 996.2 - 0.0
31/10:30am 16.2 4.2 6.6 53 4.7 NNW 59 83 32 45 996.6 - 0.0
31/10:00am 16.0 4.6 6.7 54 4.6 NNW 56 83 30 45 997.3 - 0.0
31/09:30am 15.8 4.7 6.5 54 4.5 NNW 54 74 29 40 997.2 - 0.0
31/09:00am 15.3 5.1 6.8 57 4.2 NNW 50 69 27 37 998.0 998.0 0.0
31/08:34am 15.1 6.2 6.9 58 4.0 NNW 43 61 23 33 998.8 - 0.0
31/08:30am 14.9 6.4 7.0 59 3.9 NNW 41 56 22 30 999.0 - 0.0
31/08:00am 14.7 5.8 7.0 60 3.8 NNW 43 69 23 37 999.6 - 0.0
31/07:37am 14.5 7.5 6.8 60 3.7 NNW 33 52 18 28 1000.1 - 0.0
31/07:30am 14.1 7.1 6.7 61 3.6 NNW 33 46 18 25 1000.2 - 0.0
31/07:12am 14.2 7.2 6.8 61 3.6 NNW 33 54 18 29 1000.3 - 0.0
31/07:00am 14.0 7.6 7.1 63 3.4 NNW 30 43 16 23 1000.5 - 0.0
31/06:30am 14.2 6.9 7.3 63 3.4 N 35 46 19 25 1000.6 - 0.0
31/06:00am 13.9 7.0 7.4 65 3.2 N 33 52 18 28 1001.1 1001.1 0.0
31/05:33am 14.2 7.4 7.5 64 3.3 NNW 33 54 18 29 1001.6 - 0.0
31/05:30am 14.2 7.5 7.3 63 3.4 N 32 46 17 25 1001.6 - 0.0
31/05:12am 14.5 6.1 7.3 62 3.5 N 41 61 22 33 1001.7 - 0.0
31/05:00am 14.0 6.8 7.5 65 3.2 N 35 48 19 26 1001.9 - 0.0
31/04:31am 14.1 7.3 6.9 62 3.5 N 32 50 17 27 1002.6 - 0.0
31/04:30am 14.1 7.1 6.9 62 3.5 NNW 33 50 18 27 1002.6 - 0.0
31/04:00am 14.0 7.1 6.6 61 3.6 N 32 41 17 22 1003.0 - 0.0
31/03:30am 13.6 6.7 7.2 65 3.1 N 33 46 18 25 1003.2 - 0.0
31/03:00am 13.6 6.8 7.8 68 2.9 N 33 44 18 24 1004.1 1004.1 0.0
31/02:30am 14.2 6.8 8.2 67 3.0 N 37 54 20 29 1004.4 - 0.0
31/02:00am 14.1 6.6 7.9 66 3.1 N 37 52 20 28 1004.9 - 0.0
31/01:44am 14.6 6.3 7.6 63 3.5 N 41 59 22 32 1004.9 - 0.0
31/01:30am 14.9 6.2 7.9 63 3.5 N 43 56 23 30 1005.2 - 0.0
31/01:05am 14.1 6.7 8.5 69 2.8 N 37 56 20 30 1005.7 - 0.0
31/01:00am 14.1 6.7 8.5 69 2.8 N 37 48 20 26 1005.6 - 0.0
31/12:30am 14.0 7.3 8.2 68 2.9 N 33 43 18 23 1006.5 - 0.0
31/12:00am 14.6 8.0 8.5 67 3.1 NNW 33 43 18 23 1006.7 1006.7 0.0
 
Date/Time
EST
Tmp

°C
App
Tmp
°C
Dew
Point
°C
Rel
Hum
%
Delta-T

°C
Wind Press
QNH
hPa
Press
MSL
hPa
Rain
since
9 am
mm
Dir
 
Spd
km/h
Gust
km/h
Spd
kts
Gust
kts
30/11:30pm 15.0 8.4 8.5 65 3.3 NNW 33 44 18 24 1007.5 - 0.0
30/11:02pm 15.4 7.6 8.2 62 3.6 NNW 39 57 21 31 1007.3 - 0.0
30/11:00pm 15.3 7.1 8.1 62 3.6 NNW 41 57 22 31 1007.3 - 0.0
30/10:56pm 15.5 7.6 8.0 61 3.8 NNW 39 57 21 31 1007.3 - 0.0
30/10:30pm 15.1 7.5 7.6 61 3.7 NNW 37 54 20 29 1007.5 - 0.0
30/10:21pm 15.1 6.8 7.9 62 3.6 NNW 41 59 22 32 1007.5 - 0.0
30/10:00pm 15.0 7.1 8.0 63 3.5 NNW 39 54 21 29 1007.2 - 0.0
30/09:44pm 15.3 7.5 8.3 63 3.5 NNW 39 59 21 32 1007.4 - 0.0
30/09:30pm 15.3 6.7 8.1 62 3.6 NNW 43 57 23 31 1007.5 - 0.0
30/09:00pm 15.5 7.4 8.5 63 3.6 NNW 41 54 22 29 1007.9 1007.9 0.0
30/08:30pm 15.2 9.1 8.4 64 3.4 NNW 30 41 16 22 1008.5 - 0.0
30/08:00pm 15.2 9.6 8.9 66 3.2 NNW 28 39 15 21 1008.6 - 0.0
30/07:30pm 15.1 8.6 9.0 67 3.1 NNW 33 46 18 25 1008.4 - 0.0
30/07:00pm 15.2 10.6 9.6 69 2.9 NNW 24 32 13 17 1008.9 - 0.0
30/06:30pm 15.3 9.8 9.2 67 3.1 NNW 28 39 15 21 1008.7 - 0.0
30/06:00pm 15.7 10.3 9.4 66 3.3 NNW 28 37 15 20 1008.5 1008.5 0.0
30/05:30pm 15.7 10.3 9.6 67 3.2 NNW 28 39 15 21 1008.7 - 0.0
30/05:00pm 16.5 10.8 9.9 65 3.5 NNW 30 39 16 21 1008.6 - 0.0
30/04:30pm 17.6 11.6 10.2 62 3.9 NNW 32 43 17 23 1008.5 - 0.0
30/04:00pm 17.3 10.8 10.4 64 3.7 NNW 35 44 19 24 1008.4 - 0.0
30/03:30pm 16.8 10.4 10.6 67 3.3 NNW 35 50 19 27 1008.8 - 0.0
30/03:00pm 17.0 10.2 10.8 67 3.3 NW 37 50 20 27 1008.9 1008.9 0.0
30/02:49pm 17.3 11.1 11.3 68 3.2 NNW 35 54 19 29 1008.8 - 0.0
30/02:30pm 17.4 10.7 11.0 66 3.4 NW 37 52 20 28 1008.6 - 0.0
30/02:00pm 17.7 10.2 10.8 64 3.7 NW 41 52 22 28 1008.5 - 0.0
30/01:30pm 17.3 12.1 11.6 69 3.1 NW 30 41 16 22 1009.1 - 0.0
30/01:00pm 17.5 10.9 11.3 67 3.4 NW 37 50 20 27 1009.7 - 0.0
30/12:30pm 17.2 10.0 10.6 65 3.5 NW 39 52 21 28 1010.2 - 0.0
30/12:00pm 17.0 11.6 10.8 67 3.3 NNW 30 41 16 22 1010.5 1010.5 0.0
30/11:30am 16.7 10.6 10.5 67 3.3 NW 33 48 18 26 1011.2 - 0.0
30/11:00am 16.3 10.2 10.4 68 3.1 NW 33 46 18 25 1011.6 - 0.0
30/10:30am 16.1 10.3 10.8 71 2.8 NNW 32 39 17 21 1011.7 - 0.0
30/10:00am 14.9 9.0 10.3 74 2.4 NNW 32 41 17 22 1011.7 - 0.0
30/09:30am 14.5 9.2 9.7 73 2.5 NNW 28 43 15 23 1011.8 - 0.0
30/09:00am 14.2 8.0 9.4 73 2.5 NNW 32 39 17 21 1011.6 1011.6 0.2
30/08:30am 12.1 7.7 9.1 82 1.5 N 22 26 12 14 1011.5 - 0.2
30/08:00am 11.9 7.1 8.7 81 1.6 N 24 30 13 16 1011.3 - 0.2
30/07:30am 11.6 7.0 8.3 80 1.6 N 22 28 12 15 1011.1 - 0.2
30/07:00am 12.2 7.8 9.0 81 1.6 NNW 22 30 12 16 1011.3 - 0.2
30/06:30am 11.3 7.8 8.7 84 1.3 NNW 17 22 9 12 1011.5 - 0.2
30/06:00am 11.9 7.8 8.6 80 1.6 NW 20 26 11 14 1011.4 1011.4 0.2
30/05:30am 11.4 7.6 9.0 85 1.2 NW 19 26 10 14 1011.3 - 0.2
30/05:00am 10.9 7.9 9.2 89 0.8 NW 15 17 8 9 1011.1 - 0.2
30/04:30am 12.0 8.2 9.9 87 1.1 NW 20 30 11 16 1010.9 - 0.2
30/04:00am 12.1 6.1 10.0 87 1.1 WNW 32 41 17 22 1010.9 - 0.2
30/03:57am 12.1 5.9 10.0 87 1.1 WNW 33 46 18 25 1010.9 - 0.2
30/03:38am 12.3 4.7 10.5 89 0.9 W 41 70 22 38 1011.2 - 0.2
30/03:30am 13.1 5.5 10.6 85 1.3 WNW 41 52 22 28 1011.1 - 0.0
30/03:29am 13.3 6.1 10.7 84 1.4 WNW 39 52 21 28 1011.1 - 0.0
30/03:13am 14.4 8.7 9.8 74 2.4 WNW 30 48 16 26 1010.8 - 0.0
30/03:00am 14.6 8.3 9.8 73 2.5 WNW 33 46 18 25 1010.7 1010.7 0.0
30/02:55am 14.7 9.4 9.9 73 2.5 WNW 28 46 15 25 1010.7 - 0.0
30/02:30am 14.6 9.8 10.2 75 2.3 WNW 26 37 14 20 1010.6 - 0.0
30/02:11am 14.5 8.0 10.5 77 2.1 NW 35 44 19 24 1010.6 - 0.0
30/02:00am 13.7 11.2 11.0 84 1.4 NNW 15 24 8 13 1010.6 - 0.0

Latest Capital City Observations: Canberra | Sydney | Melbourne | Brisbane | Adelaide | Perth | Hobart | Darwin

Other Formats:

Comma delimited format used in spreadsheet applications
http://www.bom.gov.au/fwo/IDV60901/IDV60901.94854.axf

JavaScript Object Notation format (JSON) in row-major order
http://www.bom.gov.au/fwo/IDV60901/IDV60901.94854.json